Airfield :
LOGIN :

Register | Disclaimer

   EN    FR    IT 

 










Legend :    VFR   Marginal VFR   IFR   Intensive IFR   Very Intensive IFR
Visi :
Ceiling :
>= 8 km
>= 3000ft
5 to 8 km
1000 to 3000 ft
1500m to 5 km
500 to 1000 ft
800 to 1500m
200 to 500 ft
< 800m
< 200 ft
Symbols :   Thunderstorms  Fog  Heavy snow  Heavy precipitations  Wind > 20 kt
SIGMETs :     Misc.  Thunderstorms  Icing  Turbulence  Mountain Waves  Volcanic Ashes






- Airport Elevation : 1830 ft


EBLB - Butgenbach Elsenborn

CURRENT METAR :
  • 141925Z AUTO 07003KT 9999 OVC110/// 02/01 Q1001 BLU

EXPIRED METARs :
  • 141855Z AUTO 05004KT 9999 OVC120/// 02/01 Q1001 BLU
  • 141825Z AUTO 05004KT 9999 FEW050/// BKN110/// BKN150/// 02/01 Q1000 BLU
  • 141755Z AUTO VRB02KT 9999 FEW036/// BKN060/// BKN110/// 02/01 Q1001 BLU
  • 141725Z AUTO VRB01KT 9999 FEW024/// OVC063/// 02/01 Q1001 BLU
  • 141655Z AUTO VRB01KT 9999 BKN058/// OVC074/// 02/01 Q1000 BLU

Expired Forecast.



MET'MAP, your aeronautical weather chart ! - Copyright ORBIFLY December 2007 - Disclaimer

ORBIFLY MET'MAP TEAM :

Programming & Development : Alexandra Zaïnal
Concept & Development : Baudouin d'Aumeries
Co-Development & Prog : Marc-Olivier Méhu
Technical & hardware support : Manuel Goepfert

Contact : metmap@orbifly.com




SOURCES & CREDITS :

   NOAA